createdAt,value
2019-03-20T09:44:33.068Z,9.78
2019-03-20T09:47:16.099Z,17.67
2019-03-20T09:49:51.665Z,8.95
2019-03-20T09:52:25.607Z,12.93
2019-03-20T09:55:00.361Z,14.45
2019-03-20T09:57:48.414Z,9.33
2019-03-20T10:00:28.695Z,7.55
2019-03-20T10:03:07.342Z,6.03
2019-03-20T10:05:42.221Z,6.53
2019-03-20T10:08:17.827Z,5.70
2019-03-20T10:10:55.696Z,6.97
2019-03-20T10:13:47.515Z,8.38
2019-03-20T10:16:35.383Z,4.35
2019-03-20T10:19:13.739Z,3.72
2019-03-20T10:21:49.063Z,5.10
2019-03-20T10:24:26.456Z,3.40
2019-03-20T10:27:02.230Z,3.60
2019-03-20T10:40:40.807Z,4.22
2019-03-20T10:43:18.248Z,5.05
2019-03-20T10:45:58.609Z,2.80
2019-03-20T10:48:37.243Z,1.82
2019-03-20T10:51:12.764Z,2.52
2019-03-20T10:53:47.158Z,1.80
2019-03-20T10:56:23.097Z,2.10
2019-03-20T10:58:59.765Z,4.65
2019-03-20T11:01:42.541Z,2.65
2019-03-20T11:04:19.329Z,1.90
2019-03-20T11:07:47.430Z,2.20
2019-03-20T11:13:41.597Z,4.15
2019-03-20T11:23:05.493Z,3.62
2019-03-20T11:30:42.675Z,3.83
2019-03-20T11:50:33.325Z,2.83
2019-03-20T11:53:16.858Z,3.45
2019-03-20T11:56:00.843Z,3.70
2019-03-20T11:58:41.383Z,3.72
2019-03-20T12:01:18.516Z,3.95
2019-03-20T12:03:56.698Z,4.28
2019-03-20T12:06:37.982Z,4.95
2019-03-20T12:09:21.208Z,7.95
2019-03-20T12:12:07.159Z,5.78
2019-03-20T12:15:00.158Z,4.62
2019-03-20T12:17:59.911Z,3.47
2019-03-20T12:20:34.893Z,3.52
2019-03-20T12:23:09.503Z,6.15
2019-03-20T12:25:43.666Z,4.20
2019-03-20T12:28:36.156Z,3.70
2019-03-20T12:31:09.847Z,3.37
2019-03-20T12:33:43.221Z,3.08
2019-03-20T12:36:16.976Z,3.85
2019-03-20T12:38:50.326Z,6.20
2019-03-20T12:41:24.941Z,3.20
2019-03-20T12:43:58.297Z,3.02
2019-03-20T12:46:41.343Z,3.00
2019-03-20T12:49:07.167Z,3.20
2019-03-20T12:51:44.134Z,3.67
2019-03-20T12:54:18.788Z,3.25
2019-03-20T12:56:53.836Z,3.22
2019-03-20T12:59:27.919Z,3.58
2019-03-20T13:02:01.196Z,7.35
2019-03-20T13:04:36.213Z,7.25
2019-03-20T13:07:09.413Z,6.22
2019-03-20T13:09:42.648Z,2.77
2019-03-20T13:12:15.988Z,5.12
2019-03-20T13:14:49.210Z,2.45
2019-03-20T13:17:22.683Z,2.77
2019-03-20T13:19:56.120Z,3.50
2019-03-20T13:22:29.295Z,2.62
2019-03-20T13:25:02.493Z,2.80
2019-03-20T13:27:35.780Z,2.92
2019-03-20T13:30:20.878Z,2.52
2019-03-20T13:32:54.249Z,6.58
2019-03-20T13:35:27.561Z,3.15
2019-03-20T13:38:02.168Z,3.60
2019-03-20T13:40:35.534Z,3.02
2019-03-20T13:43:09.109Z,2.87
2019-03-20T13:45:42.669Z,3.12
2019-03-20T13:48:16.213Z,4.47
2019-03-20T13:51:03.209Z,3.58
2019-03-20T13:53:38.342Z,2.77
2019-03-20T13:56:12.026Z,3.37
2019-03-20T13:58:46.873Z,3.35
2019-03-20T14:01:20.188Z,3.77
2019-03-20T14:03:56.986Z,2.83
2019-03-20T14:06:32.484Z,4.42
2019-03-20T14:09:08.886Z,3.30
2019-03-20T14:11:42.435Z,3.72
2019-03-20T14:14:15.986Z,3.10
2019-03-20T14:16:50.809Z,3.15
2019-03-20T14:19:24.319Z,4.75
2019-03-20T14:21:57.797Z,3.67
2019-03-20T14:24:31.642Z,2.77
2019-03-20T14:27:05.034Z,5.78
2019-03-20T14:29:39.653Z,3.00
2019-03-20T14:32:13.240Z,4.95
2019-03-20T14:34:46.780Z,4.10
2019-03-20T14:37:20.185Z,4.72
2019-03-20T14:39:53.919Z,4.40
2019-03-20T14:42:27.343Z,4.00
2019-03-20T14:45:01.378Z,5.10
2019-03-20T14:47:42.159Z,11.90
2019-03-20T14:50:14.211Z,5.80
2019-03-20T14:52:47.727Z,5.17
2019-03-20T14:55:21.214Z,15.88
2019-03-20T14:57:54.688Z,10.80
2019-03-20T15:00:29.959Z,6.67
2019-03-20T15:03:04.778Z,8.43
2019-03-20T15:05:37.847Z,3.77
2019-03-20T15:08:10.835Z,2.50
2019-03-20T15:10:46.413Z,5.42
2019-03-20T15:13:19.968Z,3.62
2019-03-20T15:16:03.930Z,2.98
2019-03-20T15:18:37.464Z,15.65
2019-03-20T15:21:11.009Z,7.65
2019-03-20T15:23:44.972Z,3.52
2019-03-20T15:26:19.359Z,3.00
2019-03-20T15:28:52.830Z,3.67
2019-03-20T15:31:26.339Z,4.50
2019-03-20T15:33:59.874Z,8.00
2019-03-20T15:36:34.256Z,13.43
2019-03-20T15:39:10.409Z,23.60
2019-03-20T15:41:44.030Z,19.95
2019-03-20T15:44:17.549Z,11.63
2019-03-20T15:46:51.239Z,5.33
2019-03-20T15:49:24.849Z,33.75
2019-03-20T15:51:59.196Z,41.88
2019-03-20T15:54:36.861Z,12.03
2019-03-20T15:57:11.443Z,9.93
2019-03-20T15:59:44.973Z,6.60
2019-03-20T16:02:18.816Z,6.40
2019-03-20T16:04:52.361Z,23.90
2019-03-20T16:07:26.138Z,32.28
2019-03-20T16:10:00.375Z,20.48
2019-03-20T16:12:34.061Z,15.72
2019-03-20T16:15:10.021Z,14.58
2019-03-20T16:17:44.194Z,13.38
2019-03-20T16:20:18.503Z,17.48
2019-03-20T16:22:52.585Z,20.82
2019-03-20T16:25:26.136Z,21.70
2019-03-20T16:27:59.705Z,24.82
2019-03-20T16:30:33.539Z,45.58
2019-03-20T16:33:07.245Z,29.67
2019-03-20T16:35:41.719Z,18.98
2019-03-20T16:38:17.710Z,42.60
2019-03-20T16:40:51.340Z,45.20
2019-03-20T16:43:25.018Z,33.92
2019-03-20T16:45:59.746Z,49.10
2019-03-20T16:48:33.568Z,33.20
2019-03-20T16:51:08.200Z,26.27
2019-03-20T16:53:41.856Z,46.42
2019-03-20T16:56:17.409Z,58.28
2019-03-20T16:58:52.347Z,37.55
2019-03-20T17:01:26.763Z,42.08
2019-03-20T17:04:01.046Z,66.62
2019-03-20T17:06:38.038Z,96.57
2019-03-20T17:09:12.757Z,83.47
2019-03-20T17:11:49.871Z,124.02
2019-03-20T17:14:37.363Z,108.75
2019-03-20T17:17:34.293Z,83.82
2019-03-20T17:20:11.906Z,113.05
2019-03-20T17:22:51.196Z,130.35
2019-03-20T17:25:30.358Z,105.20
2019-03-20T17:28:17.421Z,289.98
2019-03-20T17:31:17.771Z,234.80
2019-03-20T17:33:54.869Z,110.88
2019-03-20T17:36:35.691Z,85.70
2019-03-20T17:39:14.111Z,80.97
2019-03-20T17:42:14.706Z,34.38
2019-03-20T17:45:11.870Z,14.15
2019-03-20T17:48:22.495Z,14.65
2019-03-20T18:03:09.098Z,53.87
2019-03-20T18:05:46.036Z,50.83
2019-03-20T18:08:19.990Z,61.48
2019-03-20T18:10:54.000Z,86.75
2019-03-20T18:13:28.567Z,99.50
2019-03-20T18:16:02.969Z,92.50
2019-03-20T18:18:44.772Z,122.10
2019-03-20T18:21:21.642Z,122.87
2019-03-20T19:21:28.041Z,52.62
2019-03-20T19:24:08.357Z,34.58
2019-03-20T19:26:50.323Z,23.52
2019-03-20T19:29:49.336Z,20.85
2019-03-20T19:36:25.297Z,24.47
2019-03-20T19:46:13.150Z,26.75
2019-03-20T19:49:00.738Z,26.27
2019-03-20T19:51:50.023Z,20.60
2019-03-20T19:54:29.768Z,16.70
2019-03-20T19:57:10.311Z,14.93
2019-03-20T20:00:08.894Z,13.20
2019-03-20T20:03:10.551Z,12.37
2019-03-20T20:06:02.134Z,13.03
2019-03-20T20:09:04.584Z,12.93
2019-03-20T20:12:11.439Z,13.83
2019-03-20T20:15:26.983Z,21.33
2019-03-20T20:21:26.779Z,49.58
2019-03-20T20:24:11.280Z,17.40
2019-03-20T20:26:49.578Z,17.90
2019-03-20T20:29:30.853Z,15.90
2019-03-20T20:32:39.698Z,18.48
2019-03-20T20:43:24.164Z,8.98
2019-03-20T20:46:08.631Z,9.63
2019-03-20T20:49:02.324Z,11.10
2019-03-20T20:51:39.269Z,13.10
2019-03-20T20:54:37.937Z,12.15
2019-03-20T20:57:14.501Z,10.68
2019-03-20T20:59:53.629Z,12.25
2019-03-20T21:02:32.218Z,24.02
2019-03-20T21:05:20.697Z,38.83
2019-03-20T21:07:58.815Z,24.52
2019-03-20T21:10:34.272Z,23.90
2019-03-20T21:13:09.513Z,20.32
2019-03-20T21:15:51.468Z,16.52
2019-03-20T23:10:14.971Z,17.25
2019-03-20T23:12:52.703Z,14.45
2019-03-20T23:15:28.659Z,15.60
2019-03-20T23:18:04.243Z,14.15
2019-03-20T23:20:38.757Z,16.40
2019-03-20T23:23:13.992Z,13.78
2019-03-20T23:25:48.383Z,15.48
2019-03-20T23:28:23.477Z,13.10
2019-03-20T23:30:57.967Z,14.03
2019-03-20T23:33:32.922Z,14.07
2019-03-20T23:36:08.378Z,17.77
2019-03-20T23:38:44.034Z,21.20
2019-03-20T23:41:19.079Z,13.53
2019-03-20T23:43:54.399Z,12.30
2019-03-20T23:46:29.944Z,12.85
2019-03-20T23:49:24.798Z,17.98
2019-03-20T23:51:59.567Z,11.78
2019-03-20T23:54:47.946Z,17.70
2019-03-20T23:57:22.911Z,13.90
